Time;durP1;ratioP1;P1;durP2;ratioP2;P2;SDS_P1;SDS_P2;PMS_P1;PMS_P2;Temp;Humidity;BMP_temperature;BMP_pressure;BME280_temperature;BME280_humidity;BME280_pressure;Samples;Min_cycle;Max_cycle;Signal;HPM_P1;HPM_P2
2023/09/18 05:02:43;;;;;;;1999.90;999.90;;;;;;;;;;5068199;28;20387;-67
2023/09/18 05:05:09;;;;;;;1999.90;999.90;;;;;;;;;;5067501;28;20025;-65
2023/09/18 05:07:36;;;;;;;1999.90;999.90;;;;;;;;;;5067441;28;20526;-65
2023/09/18 05:10:04;;;;;;;1999.90;999.90;;;;;;;;;;5067533;28;20031;-64
2023/09/18 05:12:30;;;;;;;1999.90;999.90;;;;;;;;;;5065896;28;20036;-67
2023/09/18 05:14:58;;;;;;;1999.90;999.90;;;;;;;;;;5067420;28;20099;-66
2023/09/18 05:17:39;;;;;;;1999.90;999.90;;;;;;;;;;5067128;28;20380;-67
2023/09/18 05:20:06;;;;;;;1999.90;999.90;;;;;;;;;;5065298;28;20035;-68
2023/09/18 05:22:33;;;;;;;1999.90;999.90;;;;;;;;;;5065679;28;20033;-72
2023/09/18 05:24:59;;;;;;;1999.90;999.90;;;;;;;;;;5067623;28;20112;-66
2023/09/18 05:27:25;;;;;;;1999.90;999.90;;;;;;;;;;5067533;28;20099;-65
2023/09/18 05:29:51;;;;;;;1999.90;999.90;;;;;;;;;;5067394;28;20048;-67
2023/09/18 05:32:17;;;;;;;1999.90;999.90;;;;;;;;;;5067157;28;20472;-72
2023/09/18 05:34:43;;;;;;;1999.90;999.90;;;;;;;;;;5066807;28;20041;-65
2023/09/18 05:37:10;;;;;;;1999.90;999.90;;;;;;;;;;5067250;28;20086;-69
2023/09/18 05:39:36;;;;;;;1999.90;999.90;;;;;;;;;;5066302;28;20033;-78
2023/09/18 05:42:02;;;;;;;1999.90;999.90;;;;;;;;;;5067011;28;20045;-67
2023/09/18 05:44:28;;;;;;;1999.90;999.90;;;;;;;;;;5067122;28;20091;-67
2023/09/18 05:46:54;;;;;;;1999.90;999.90;;;;;;;;;;5067170;28;20039;-66
2023/09/18 05:49:20;;;;;;;1999.90;999.90;;;;;;;;;;5065398;28;20036;-78
2023/09/18 05:51:48;;;;;;;1999.90;999.90;;;;;;;;;;5067135;28;20036;-71
2023/09/18 05:54:14;;;;;;;1999.90;999.90;;;;;;;;;;5066603;28;20392;-68
2023/09/18 05:56:40;;;;;;;1999.90;999.90;;;;;;;;;;5066701;28;20148;-68
2023/09/18 05:59:06;;;;;;;1999.90;999.90;;;;;;;;;;5066901;28;20052;-67
2023/09/18 06:01:32;;;;;;;1999.90;999.90;;;;;;;;;;5066411;28;20065;-67
2023/09/18 06:03:59;;;;;;;1999.90;999.90;;;;;;;;;;5066085;28;20024;-68
2023/09/18 06:06:25;;;;;;;1999.90;999.90;;;;;;;;;;5066753;28;20557;-71
2023/09/18 06:08:53;;;;;;;1999.90;999.90;;;;;;;;;;5066518;28;20134;-68
2023/09/18 06:11:19;;;;;;;1999.90;999.90;;;;;;;;;;5066345;28;20106;-68
2023/09/18 06:13:45;;;;;;;1999.90;999.90;;;;;;;;;;5054576;28;20032;-68
2023/09/18 06:16:11;;;;;;;1999.90;999.90;;;;;;;;;;5053435;28;20036;-68
2023/09/18 06:18:38;;;;;;;1999.90;999.90;;;;;;;;;;5053447;28;20036;-70
2023/09/18 06:21:05;;;;;;;1999.90;999.90;;;;;;;;;;5053110;28;20040;-66
2023/09/18 06:23:31;;;;;;;1999.90;999.90;;;;;;;;;;5053072;28;20020;-66
2023/09/18 06:25:59;;;;;;;1999.90;999.90;;;;;;;;;;5051397;28;20036;-70
2023/09/18 06:28:25;;;;;;;1999.90;999.90;;;;;;;;;;5051858;28;20361;-67
2023/09/18 06:30:52;;;;;;;1999.90;999.90;;;;;;;;;;5053298;28;20025;-66
2023/09/18 06:33:18;;;;;;;1999.90;999.90;;;;;;;;;;5052724;28;20037;-67
2023/09/18 06:35:44;;;;;;;1999.90;999.90;;;;;;;;;;5053107;28;20048;-66
2023/09/18 06:38:12;;;;;;;1999.90;999.90;;;;;;;;;;5052868;28;20024;-67
2023/09/18 06:40:38;;;;;;;1999.90;999.90;;;;;;;;;;5052875;28;20021;-69
2023/09/18 06:43:05;;;;;;;1999.90;999.90;;;;;;;;;;5052575;28;20116;-64
2023/09/18 06:45:33;;;;;;;1999.90;999.90;;;;;;;;;;5046384;28;20044;-67
2023/09/18 06:48:00;;;;;;;1999.90;999.90;;;;;;;;;;5043666;28;20017;-66
2023/09/18 06:50:26;;;;;;;1999.90;999.90;;;;;;;;;;5052381;28;20055;-65
2023/09/18 06:52:52;;;;;;;1999.90;999.90;;;;;;;;;;5051471;28;20022;-66
2023/09/18 06:55:18;;;;;;;1999.90;999.90;;;;;;;;;;5051145;28;20037;-65
2023/09/18 06:57:44;;;;;;;1999.90;999.90;;;;;;;;;;5046340;28;20384;-65
2023/09/18 07:00:10;;;;;;;1999.90;999.90;;;;;;;;;;5038776;28;20056;-65
2023/09/18 07:02:37;;;;;;;1999.90;999.90;;;;;;;;;;5048244;28;20053;-66
2023/09/18 07:05:03;;;;;;;1999.90;999.90;;;;;;;;;;5038717;28;20033;-65
2023/09/18 07:07:29;;;;;;;1999.90;999.90;;;;;;;;;;5038975;28;20021;-65
2023/09/18 07:09:55;;;;;;;1999.90;999.90;;;;;;;;;;5032575;28;20457;-68
2023/09/18 07:12:21;;;;;;;1999.90;999.90;;;;;;;;;;5044640;28;20021;-67
2023/09/18 07:14:47;;;;;;;1999.90;999.90;;;;;;;;;;5042556;28;20088;-67
2023/09/18 07:17:13;;;;;;;1999.90;999.90;;;;;;;;;;5035277;28;20030;-68
2023/09/18 07:19:39;;;;;;;1999.90;999.90;;;;;;;;;;5040078;28;20059;-68
2023/09/18 07:22:05;;;;;;;1999.90;999.90;;;;;;;;;;5040809;28;20040;-67
2023/09/18 07:24:32;;;;;;;1999.90;999.90;;;;;;;;;;5041609;28;20099;-68
2023/09/18 07:26:58;;;;;;;1999.90;999.90;;;;;;;;;;5043164;28;20017;-70
2023/09/18 07:29:25;;;;;;;1999.90;999.90;;;;;;;;;;5044158;28;20024;-69
2023/09/18 07:31:51;;;;;;;1999.90;999.90;;;;;;;;;;5043687;28;20035;-67
2023/09/18 07:34:17;;;;;;;1999.90;999.90;;;;;;;;;;5032076;28;20033;-67
2023/09/18 07:36:44;;;;;;;1999.90;999.90;;;;;;;;;;5037165;28;20042;-66
2023/09/18 07:39:11;;;;;;;1999.90;999.90;;;;;;;;;;5032108;28;20049;-66
2023/09/18 07:41:39;;;;;;;1999.90;999.90;;;;;;;;;;5034722;28;20463;-69
2023/09/18 07:44:05;;;;;;;1999.90;999.90;;;;;;;;;;5044553;28;20026;-65
2023/09/18 07:46:31;;;;;;;1999.90;999.90;;;;;;;;;;5039669;28;20036;-64
2023/09/18 07:48:57;;;;;;;1999.90;999.90;;;;;;;;;;5031395;28;20029;-66
2023/09/18 07:51:23;;;;;;;1999.90;999.90;;;;;;;;;;5033721;28;20056;-65
2023/09/18 07:53:49;;;;;;;1999.90;999.90;;;;;;;;;;5041705;28;20381;-65
2023/09/18 07:56:15;;;;;;;1999.90;999.90;;;;;;;;;;5051191;28;20031;-76
2023/09/18 07:58:42;;;;;;;1999.90;999.90;;;;;;;;;;5051005;28;20047;-67
2023/09/18 08:01:10;;;;;;;1999.90;999.90;;;;;;;;;;5051270;28;20048;-66
2023/09/18 08:03:36;;;;;;;1999.90;999.90;;;;;;;;;;5051142;28;20375;-65
2023/09/18 08:06:04;;;;;;;1999.90;999.90;;;;;;;;;;5051216;28;20116;-67
2023/09/18 08:08:32;;;;;;;1999.90;999.90;;;;;;;;;;5049974;28;20025;-66
2023/09/18 08:10:58;;;;;;;1999.90;999.90;;;;;;;;;;5051080;28;20104;-67
2023/09/18 08:13:25;;;;;;;1999.90;999.90;;;;;;;;;;5044233;28;20437;-67
2023/09/18 08:15:51;;;;;;;1999.90;999.90;;;;;;;;;;5040121;28;20021;-67
2023/09/18 08:18:17;;;;;;;1999.90;999.90;;;;;;;;;;5041330;28;20111;-67
2023/09/18 08:20:43;;;;;;;1999.90;999.90;;;;;;;;;;5050054;28;20037;-67
2023/09/18 08:23:12;;;;;;;1999.90;999.90;;;;;;;;;;5049904;28;20084;-67
2023/09/18 08:25:40;;;;;;;1999.90;999.90;;;;;;;;;;5049982;28;20054;-66
2023/09/18 08:28:06;;;;;;;1999.90;999.90;;;;;;;;;;5050335;28;20114;-68
2023/09/18 08:30:32;;;;;;;1999.90;999.90;;;;;;;;;;5050462;28;20045;-67
2023/09/18 08:32:58;;;;;;;1999.90;999.90;;;;;;;;;;5049871;28;20149;-68
2023/09/18 08:35:29;;;;;;;1999.90;999.90;;;;;;;;;;5049637;28;20817;-68
2023/09/18 08:37:55;;;;;;;1999.90;999.90;;;;;;;;;;5050364;28;20028;-68
2023/09/18 08:40:23;;;;;;;1999.90;999.90;;;;;;;;;;5049944;28;20044;-66
2023/09/18 08:42:51;;;;;;;1999.90;999.90;;;;;;;;;;5050043;28;20035;-68
2023/09/18 08:45:26;;;;;;;1999.90;999.90;;;;;;;;;;5049439;28;20056;-67
2023/09/18 08:47:53;;;;;;;1999.90;999.90;;;;;;;;;;5049866;28;20108;-67
2023/09/18 08:50:20;;;;;;;1999.90;999.90;;;;;;;;;;5049836;28;20108;-69
2023/09/18 08:52:48;;;;;;;1999.90;999.90;;;;;;;;;;5050012;28;20025;-69
2023/09/18 08:55:14;;;;;;;1999.90;999.90;;;;;;;;;;5050238;28;20128;-73
2023/09/18 08:57:40;;;;;;;1999.90;999.90;;;;;;;;;;5049772;28;20025;-69
2023/09/18 09:00:11;;;;;;;1999.90;999.90;;;;;;;;;;5049961;28;20032;-68
2023/09/18 09:02:38;;;;;;;1999.90;999.90;;;;;;;;;;5049928;28;20083;-69
2023/09/18 09:05:04;;;;;;;1999.90;999.90;;;;;;;;;;5049894;28;20376;-73
2023/09/18 09:07:31;;;;;;;1999.90;999.90;;;;;;;;;;5049785;28;20029;-74
2023/09/18 09:09:57;;;;;;;1999.90;999.90;;;;;;;;;;5049995;28;20029;-68
2023/09/18 09:12:42;;;;;;;1999.90;999.90;;;;;;;;;;5049955;28;20116;-69
2023/09/18 09:15:08;;;;;;;1999.90;999.90;;;;;;;;;;5050411;28;20090;-68
2023/09/18 09:17:34;;;;;;;1999.90;999.90;;;;;;;;;;5050207;28;20484;-73
2023/09/18 09:20:11;;;;;;;1999.90;999.90;;;;;;;;;;5049978;28;20057;-72
2023/09/18 09:22:37;;;;;;;1999.90;999.90;;;;;;;;;;5050319;28;20029;-68
2023/09/18 09:25:04;;;;;;;1999.90;999.90;;;;;;;;;;5050164;28;20028;-75
2023/09/18 09:27:42;;;;;;;1999.90;999.90;;;;;;;;;;5050148;28;20060;-68
2023/09/18 09:30:09;;;;;;;1999.90;999.90;;;;;;;;;;5046878;28;20033;-68
2023/09/18 09:32:35;;;;;;;1999.90;999.90;;;;;;;;;;5039828;28;20079;-68
2023/09/18 09:35:06;;;;;;;1999.90;999.90;;;;;;;;;;5039550;28;20108;-68
2023/09/18 09:37:32;;;;;;;1999.90;999.90;;;;;;;;;;5038481;28;20115;-68
2023/09/18 09:40:08;;;;;;;1999.90;999.90;;;;;;;;;;5039527;28;20025;-68
2023/09/18 09:42:39;;;;;;;1999.90;999.90;;;;;;;;;;5037665;28;20209;-72
2023/09/18 09:45:06;;;;;;;1999.90;999.90;;;;;;;;;;5031143;28;20029;-67
2023/09/18 09:47:36;;;;;;;1999.90;999.90;;;;;;;;;;5039189;28;20334;-67
2023/09/18 09:50:13;;;;;;;1999.90;999.90;;;;;;;;;;5034099;28;20068;-70
2023/09/18 09:52:48;;;;;;;1999.90;999.90;;;;;;;;;;5034034;28;20104;-68
2023/09/18 09:55:24;;;;;;;1999.90;999.90;;;;;;;;;;5033835;28;20060;-67
2023/09/18 09:57:52;;;;;;;1999.90;999.90;;;;;;;;;;5033331;28;20022;-68
2023/09/18 10:00:29;;;;;;;1999.90;999.90;;;;;;;;;;5033016;28;20108;-68
2023/09/18 10:02:57;;;;;;;1999.90;999.90;;;;;;;;;;5032914;28;20065;-67
2023/09/18 10:05:25;;;;;;;1999.90;999.90;;;;;;;;;;5033315;28;20037;-68
2023/09/18 10:07:52;;;;;;;1999.90;999.90;;;;;;;;;;5036519;28;20445;-67
2023/09/18 10:10:18;;;;;;;1999.90;999.90;;;;;;;;;;5032994;28;20033;-68
2023/09/18 10:12:45;;;;;;;1999.90;999.90;;;;;;;;;;5032380;28;20100;-74
2023/09/18 10:15:12;;;;;;;1999.90;999.90;;;;;;;;;;5033237;28;20033;-76
2023/09/18 10:17:46;;;;;;;1999.90;999.90;;;;;;;;;;5034807;28;20078;-67
2023/09/18 10:20:19;;;;;;;1999.90;999.90;;;;;;;;;;5051275;28;20129;-67
2023/09/18 10:22:53;;;;;;;1999.90;999.90;;;;;;;;;;5052627;28;20052;-68
2023/09/18 10:25:24;;;;;;;1999.90;999.90;;;;;;;;;;5052728;28;20114;-67
2023/09/18 10:27:53;;;;;;;1999.90;999.90;;;;;;;;;;5051765;28;20036;-68
2023/09/18 10:30:19;;;;;;;1999.90;999.90;;;;;;;;;;5052548;28;20098;-68
2023/09/18 10:32:46;;;;;;;1999.90;999.90;;;;;;;;;;5051676;28;20523;-67
2023/09/18 10:35:12;;;;;;;1999.90;999.90;;;;;;;;;;5052106;28;20082;-68
2023/09/18 10:37:39;;;;;;;1999.90;999.90;;;;;;;;;;5052384;28;20032;-68
2023/09/18 10:40:09;;;;;;;1999.90;999.90;;;;;;;;;;5052374;28;20035;-74
2023/09/18 10:42:35;;;;;;;1999.90;999.90;;;;;;;;;;5052345;28;20033;-66
2023/09/18 10:45:04;;;;;;;1999.90;999.90;;;;;;;;;;5052546;28;20017;-68
2023/09/18 10:47:31;;;;;;;1999.90;999.90;;;;;;;;;;5052521;28;20461;-68
2023/09/18 10:49:57;;;;;;;1999.90;999.90;;;;;;;;;;5049693;28;20026;-67
2023/09/18 10:52:23;;;;;;;1999.90;999.90;;;;;;;;;;5032211;28;20100;-68
2023/09/18 10:54:49;;;;;;;1999.90;999.90;;;;;;;;;;5032500;28;20029;-67
2023/09/18 10:57:15;;;;;;;1999.90;999.90;;;;;;;;;;5031895;28;20025;-69
2023/09/18 10:59:47;;;;;;;1999.90;999.90;;;;;;;;;;5041668;28;20035;-68
2023/09/18 11:02:16;;;;;;;1999.90;999.90;;;;;;;;;;5035444;28;20066;-68
2023/09/18 11:04:42;;;;;;;1999.90;999.90;;;;;;;;;;5034304;28;20036;-67
2023/09/18 11:07:09;;;;;;;1999.90;999.90;;;;;;;;;;5051755;28;20029;-66
2023/09/18 11:09:44;;;;;;;1999.90;999.90;;;;;;;;;;5051942;28;20476;-68
2023/09/18 11:12:11;;;;;;;1999.90;999.90;;;;;;;;;;5052167;28;20108;-68
2023/09/18 11:14:46;;;;;;;1999.90;999.90;;;;;;;;;;5051341;28;20028;-67
2023/09/18 11:17:38;;;;;;;1999.90;999.90;;;;;;;;;;5052089;28;20033;-68
2023/09/18 11:20:08;;;;;;;;;;;;;;;;;;5051706;28;20048;-68
2023/09/18 11:22:35;;;;;;;1999.90;999.90;;;;;;;;;;5051543;28;19917;-68
2023/09/18 11:25:20;;;;;;;1999.90;999.90;;;;;;;;;;5052307;28;20023;-67
2023/09/18 11:27:54;;;;;;;1999.90;999.90;;;;;;;;;;5051874;28;20025;-67
2023/09/18 11:30:20;;;;;;;1999.90;999.90;;;;;;;;;;5051665;28;20029;-72
2023/09/18 11:32:46;;;;;;;1999.90;999.90;;;;;;;;;;5052765;28;20145;-73
2023/09/18 11:35:13;;;;;;;1999.90;999.90;;;;;;;;;;5052079;28;20029;-73
2023/09/18 11:37:39;;;;;;;1999.90;999.90;;;;;;;;;;5052183;28;20013;-79
2023/09/18 11:40:08;;;;;;;1999.90;999.90;;;;;;;;;;5049991;28;20396;-78
2023/09/18 11:42:34;;;;;;;1999.90;999.90;;;;;;;;;;5052110;28;20028;-69
2023/09/18 11:45:00;;;;;;;1999.90;999.90;;;;;;;;;;5052447;28;20017;-71
2023/09/18 11:47:28;;;;;;;1999.90;999.90;;;;;;;;;;5052396;28;20025;-79
2023/09/18 11:49:58;;;;;;;1999.90;999.90;;;;;;;;;;5052229;28;20032;-77
2023/09/18 11:52:31;;;;;;;1999.90;999.90;;;;;;;;;;5051925;28;20036;-82
2023/09/18 11:54:58;;;;;;;1999.90;999.90;;;;;;;;;;5052148;28;20676;-79
2023/09/18 11:57:25;;;;;;;1999.90;999.90;;;;;;;;;;5051916;28;20126;-73
2023/09/18 11:59:52;;;;;;;1999.90;999.90;;;;;;;;;;5052164;28;20049;-81
2023/09/18 12:02:27;;;;;;;1999.90;999.90;;;;;;;;;;5051953;28;20057;-75
2023/09/18 12:04:54;;;;;;;1999.90;999.90;;;;;;;;;;5052229;28;20148;-80
2023/09/18 12:07:21;;;;;;;1999.90;999.90;;;;;;;;;;5051890;28;20439;-81
2023/09/18 12:09:47;;;;;;;1999.90;999.90;;;;;;;;;;5051582;28;20376;-81
2023/09/18 12:12:15;;;;;;;1999.90;999.90;;;;;;;;;;5051602;28;20090;-81
2023/09/18 12:14:42;;;;;;;1999.90;999.90;;;;;;;;;;5051554;28;20025;-74
2023/09/18 12:17:08;;;;;;;1999.90;999.90;;;;;;;;;;5052276;28;20025;-76
2023/09/18 12:19:35;;;;;;;1999.90;999.90;;;;;;;;;;5052556;28;20028;-77
2023/09/18 12:22:02;;;;;;;1999.90;999.90;;;;;;;;;;5051733;28;20040;-77
2023/09/18 12:24:28;;;;;;;1999.90;999.90;;;;;;;;;;5051887;28;20085;-72
2023/09/18 12:26:55;;;;;;;1999.90;999.90;;;;;;;;;;5051843;28;20044;-73
2023/09/18 12:29:21;;;;;;;1999.90;999.90;;;;;;;;;;5051686;28;20027;-73
2023/09/18 12:31:50;;;;;;;1999.90;999.90;;;;;;;;;;5051267;28;20094;-77
2023/09/18 12:34:17;;;;;;;1999.90;999.90;;;;;;;;;;5051042;28;20017;-73
2023/09/18 12:36:50;;;;;;;1999.90;999.90;;;;;;;;;;5050486;28;20556;-74
2023/09/18 12:39:16;;;;;;;1999.90;999.90;;;;;;;;;;5050586;28;20112;-79
2023/09/18 12:41:43;;;;;;;1999.90;999.90;;;;;;;;;;5050887;28;20069;-77
2023/09/18 12:44:10;;;;;;;1999.90;999.90;;;;;;;;;;5051109;28;20013;-78
2023/09/18 12:46:36;;;;;;;1999.90;999.90;;;;;;;;;;5050860;28;20032;-74
2023/09/18 12:49:16;;;;;;;1999.90;999.90;;;;;;;;;;5050442;28;20047;-68
2023/09/18 12:51:42;;;;;;;1999.90;999.90;;;;;;;;;;5050426;28;20021;-76
2023/09/18 12:54:08;;;;;;;1999.90;999.90;;;;;;;;;;5050674;28;20045;-73
2023/09/18 12:56:40;;;;;;;1999.90;999.90;;;;;;;;;;5050498;28;20033;-78
2023/09/18 12:59:06;;;;;;;1999.90;999.90;;;;;;;;;;5050509;28;20155;-77
2023/09/18 13:01:32;;;;;;;1999.90;999.90;;;;;;;;;;5050014;28;20060;-78
2023/09/18 13:04:05;;;;;;;1999.90;999.90;;;;;;;;;;5047757;28;20025;-78
2023/09/18 13:06:31;;;;;;;1999.90;999.90;;;;;;;;;;5048529;28;20503;-69
2023/09/18 13:09:15;;;;;;;1999.90;999.90;;;;;;;;;;5049240;28;20345;-75
2023/09/18 13:11:57;;;;;;;1999.90;999.90;;;;;;;;;;5048795;28;20029;-73
2023/09/18 13:14:23;;;;;;;1999.90;999.90;;;;;;;;;;5050263;28;20108;-69
2023/09/18 13:16:49;;;;;;;1999.90;999.90;;;;;;;;;;5049936;28;20024;-76
2023/09/18 13:19:15;;;;;;;1999.90;999.90;;;;;;;;;;5049696;28;20484;-76
2023/09/18 13:21:48;;;;;;;1999.90;999.90;;;;;;;;;;5048031;28;20053;-72
2023/09/18 13:24:25;;;;;;;1999.90;999.90;;;;;;;;;;5053366;28;20017;-70
2023/09/18 13:26:51;;;;;;;1999.90;999.90;;;;;;;;;;5053987;28;20025;-69
2023/09/18 13:29:17;;;;;;;1999.90;999.90;;;;;;;;;;5053704;28;20025;-71
2023/09/18 13:31:43;;;;;;;1999.90;999.90;;;;;;;;;;5053299;28;20025;-77
2023/09/18 13:34:09;;;;;;;1999.90;999.90;;;;;;;;;;5053270;28;20120;-76
2023/09/18 13:36:35;;;;;;;1999.90;999.90;;;;;;;;;;5054163;28;20021;-77
2023/09/18 13:39:01;;;;;;;1999.90;999.90;;;;;;;;;;5053897;28;20017;-78
2023/09/18 13:41:27;;;;;;;1999.90;999.90;;;;;;;;;;5053509;28;20025;-70
2023/09/18 13:43:55;;;;;;;1999.90;999.90;;;;;;;;;;5053972;28;20035;-76
2023/09/18 13:46:21;;;;;;;1999.90;999.90;;;;;;;;;;5054042;28;20020;-74
2023/09/18 13:48:48;;;;;;;1999.90;999.90;;;;;;;;;;5054152;28;20142;-70
2023/09/18 13:51:14;;;;;;;1999.90;999.90;;;;;;;;;;5054054;28;20039;-76
2023/09/18 13:53:41;;;;;;;1999.90;999.90;;;;;;;;;;5052724;28;20430;-80
2023/09/18 13:56:07;;;;;;;1999.90;999.90;;;;;;;;;;5053773;28;20024;-69
2023/09/18 13:58:35;;;;;;;1999.90;999.90;;;;;;;;;;5053346;28;20037;-72
2023/09/18 14:01:01;;;;;;;1999.90;999.90;;;;;;;;;;5053119;28;20073;-78
2023/09/18 14:03:27;;;;;;;1999.90;999.90;;;;;;;;;;5053476;28;20032;-72
2023/09/18 14:05:53;;;;;;;1999.90;999.90;;;;;;;;;;5052993;28;20061;-69
2023/09/18 14:08:19;;;;;;;1999.90;999.90;;;;;;;;;;5053431;28;20090;-73
2023/09/18 14:10:45;;;;;;;1999.90;999.90;;;;;;;;;;5054111;28;20079;-74
2023/09/18 14:13:11;;;;;;;1999.90;999.90;;;;;;;;;;5052351;28;20471;-79
2023/09/18 14:15:39;;;;;;;1999.90;999.90;;;;;;;;;;5053330;28;20113;-81
2023/09/18 14:18:05;;;;;;;1999.90;999.90;;;;;;;;;;5053792;28;20017;-69
2023/09/18 14:20:31;;;;;;;1999.90;999.90;;;;;;;;;;5053662;28;20029;-73
2023/09/18 14:22:57;;;;;;;1999.90;999.90;;;;;;;;;;5053802;28;20032;-71
2023/09/18 14:25:23;;;;;;;1999.90;999.90;;;;;;;;;;5052713;28;20024;-77
2023/09/18 14:27:49;;;;;;;1999.90;999.90;;;;;;;;;;5053566;28;20429;-76
2023/09/18 14:30:15;;;;;;;1999.90;999.90;;;;;;;;;;5036857;28;20026;-75
2023/09/18 14:32:41;;;;;;;1999.90;999.90;;;;;;;;;;5033888;28;20385;-80
2023/09/18 14:35:08;;;;;;;1999.90;999.90;;;;;;;;;;5033286;28;20037;-73
2023/09/18 14:37:34;;;;;;;1999.90;999.90;;;;;;;;;;5033867;28;20034;-77
2023/09/18 14:40:00;;;;;;;1999.90;999.90;;;;;;;;;;5035993;28;20033;-75
2023/09/18 14:42:26;;;;;;;1999.90;999.90;;;;;;;;;;5033332;28;20568;-74
2023/09/18 14:44:52;;;;;;;1999.90;999.90;;;;;;;;;;5033762;28;20041;-76
2023/09/18 14:47:18;;;;;;;1999.90;999.90;;;;;;;;;;5033278;28;20112;-78
2023/09/18 14:49:46;;;;;;;1999.90;999.90;;;;;;;;;;5040119;28;20059;-77
2023/09/18 14:52:13;;;;;;;1999.90;999.90;;;;;;;;;;5036223;28;20052;-75
2023/09/18 14:54:40;;;;;;;1999.90;999.90;;;;;;;;;;5033204;28;20024;-78
2023/09/18 14:57:06;;;;;;;1999.90;999.90;;;;;;;;;;5040065;28;20467;-78
2023/09/18 14:59:32;;;;;;;1999.90;999.90;;;;;;;;;;5053776;28;20033;-74
2023/09/18 15:01:58;;;;;;;1999.90;999.90;;;;;;;;;;5052721;28;20522;-75
2023/09/18 15:04:24;;;;;;;1999.90;999.90;;;;;;;;;;5052647;28;20392;-75
2023/09/18 15:06:50;;;;;;;1999.90;999.90;;;;;;;;;;5053028;28;20909;-78
2023/09/18 15:09:17;;;;;;;1999.90;999.90;;;;;;;;;;5049196;28;20047;-77
2023/09/18 15:11:43;;;;;;;1999.90;999.90;;;;;;;;;;5051089;28;20043;-74
2023/09/18 15:14:09;;;;;;;1999.90;999.90;;;;;;;;;;5047571;28;20423;-72
2023/09/18 15:16:35;;;;;;;1999.90;999.90;;;;;;;;;;5037511;28;20052;-76
2023/09/18 15:19:04;;;;;;;1999.90;999.90;;;;;;;;;;5031626;28;20120;-70
2023/09/18 15:21:30;;;;;;;1999.90;999.90;;;;;;;;;;5032586;28;20067;-74
2023/09/18 15:23:57;;;;;;;1999.90;999.90;;;;;;;;;;5032340;28;20351;-73
2023/09/18 15:26:23;;;;;;;1999.90;999.90;;;;;;;;;;5036344;28;20469;-70
2023/09/18 15:28:49;;;;;;;1999.90;999.90;;;;;;;;;;5037802;28;20021;-74
2023/09/18 15:31:15;;;;;;;1999.90;999.90;;;;;;;;;;5034582;28;20064;-74
2023/09/18 15:33:42;;;;;;;1999.90;999.90;;;;;;;;;;5041570;28;20079;-77
2023/09/18 15:36:08;;;;;;;1999.90;999.90;;;;;;;;;;5041334;28;20017;-72
2023/09/18 15:38:34;;;;;;;1999.90;999.90;;;;;;;;;;5042546;28;20029;-73
2023/09/18 15:41:00;;;;;;;1999.90;999.90;;;;;;;;;;5041193;28;20084;-75
2023/09/18 15:43:27;;;;;;;1999.90;999.90;;;;;;;;;;5035580;28;20021;-75
2023/09/18 15:45:53;;;;;;;1999.90;999.90;;;;;;;;;;5029394;28;20033;-75
2023/09/18 15:48:19;;;;;;;1999.90;999.90;;;;;;;;;;5031724;28;20060;-76
2023/09/18 15:50:46;;;;;;;1999.90;999.90;;;;;;;;;;5031913;28;20663;-77
2023/09/18 15:53:12;;;;;;;1999.90;999.90;;;;;;;;;;5031237;28;20124;-75
2023/09/18 15:55:38;;;;;;;1999.90;999.90;;;;;;;;;;5030457;28;20036;-73
2023/09/18 15:58:04;;;;;;;1999.90;999.90;;;;;;;;;;5031640;28;20032;-71
2023/09/18 16:00:30;;;;;;;1999.90;999.90;;;;;;;;;;5031137;28;20033;-76
2023/09/18 16:02:56;;;;;;;1999.90;999.90;;;;;;;;;;5031688;28;20033;-73
2023/09/18 16:05:25;;;;;;;1999.90;999.90;;;;;;;;;;5031776;28;20021;-73
2023/09/18 16:07:52;;;;;;;1999.90;999.90;;;;;;;;;;5031780;28;20033;-76
2023/09/18 16:10:18;;;;;;;1999.90;999.90;;;;;;;;;;5032761;28;20519;-76
2023/09/18 16:12:44;;;;;;;1999.90;999.90;;;;;;;;;;5032214;28;20033;-74
2023/09/18 16:15:10;;;;;;;1999.90;999.90;;;;;;;;;;5038420;28;20028;-73
2023/09/18 16:17:36;;;;;;;1999.90;999.90;;;;;;;;;;5051802;28;20586;-74
2023/09/18 16:20:03;;;;;;;1999.90;999.90;;;;;;;;;;5044143;28;20102;-75
2023/09/18 16:22:29;;;;;;;1999.90;999.90;;;;;;;;;;5049185;28;20037;-76
2023/09/18 16:24:58;;;;;;;1999.90;999.90;;;;;;;;;;5051515;28;20028;-73
2023/09/18 16:27:24;;;;;;;1999.90;999.90;;;;;;;;;;5051239;28;20025;-78
2023/09/18 16:29:51;;;;;;;1999.90;999.90;;;;;;;;;;5051659;28;20473;-73
2023/09/18 16:32:19;;;;;;;1999.90;999.90;;;;;;;;;;5050616;28;20111;-69
2023/09/18 16:34:45;;;;;;;1999.90;999.90;;;;;;;;;;5049035;28;20048;-73
2023/09/18 16:37:11;;;;;;;1999.90;999.90;;;;;;;;;;5041568;28;20108;-69
2023/09/18 16:39:37;;;;;;;1999.90;999.90;;;;;;;;;;5040116;28;20491;-74
2023/09/18 16:42:03;;;;;;;1999.90;999.90;;;;;;;;;;5039819;28;20451;-72
2023/09/18 16:44:29;;;;;;;1999.90;999.90;;;;;;;;;;5042263;28;20112;-79
2023/09/18 16:46:55;;;;;;;1999.90;999.90;;;;;;;;;;5040530;28;20381;-79
2023/09/18 16:49:22;;;;;;;1999.90;999.90;;;;;;;;;;5038162;28;20022;-78
2023/09/18 16:51:52;;;;;;;1999.90;999.90;;;;;;;;;;5039382;28;20116;-81
2023/09/18 16:54:21;;;;;;;1999.90;999.90;;;;;;;;;;5039117;28;20101;-73
2023/09/18 16:56:48;;;;;;;1999.90;999.90;;;;;;;;;;5031229;28;20025;-76
2023/09/18 16:59:14;;;;;;;1999.90;999.90;;;;;;;;;;5039616;28;20108;-71
2023/09/18 17:01:40;;;;;;;1999.90;999.90;;;;;;;;;;5038314;28;20045;-80
2023/09/18 17:04:06;;;;;;;1999.90;999.90;;;;;;;;;;5040225;28;20476;-78
2023/09/18 17:06:35;;;;;;;1999.90;999.90;;;;;;;;;;5041440;28;20029;-73
2023/09/18 17:09:04;;;;;;;1999.90;999.90;;;;;;;;;;5040841;28;20056;-75
2023/09/18 17:11:31;;;;;;;1999.90;999.90;;;;;;;;;;5038422;28;20104;-75
2023/09/18 17:13:57;;;;;;;1999.90;999.90;;;;;;;;;;5040927;28;20048;-76
2023/09/18 17:16:24;;;;;;;1999.90;999.90;;;;;;;;;;5034430;28;20028;-80
2023/09/18 17:18:55;;;;;;;1999.90;999.90;;;;;;;;;;5040798;28;20380;-77
2023/09/18 17:21:23;;;;;;;1999.90;999.90;;;;;;;;;;5039656;28;20052;-74
2023/09/18 17:23:49;;;;;;;1999.90;999.90;;;;;;;;;;5039770;28;20032;-77
2023/09/18 17:26:15;;;;;;;1999.90;999.90;;;;;;;;;;5039845;28;20029;-77
2023/09/18 17:28:41;;;;;;;1999.90;999.90;;;;;;;;;;5038125;28;20021;-74
2023/09/18 17:31:08;;;;;;;1999.90;999.90;;;;;;;;;;5038748;28;20025;-74
2023/09/18 17:33:34;;;;;;;1999.90;999.90;;;;;;;;;;5037975;28;20527;-78
2023/09/18 17:36:01;;;;;;;1999.90;999.90;;;;;;;;;;5041237;28;20346;-74
2023/09/18 17:38:27;;;;;;;1999.90;999.90;;;;;;;;;;5041044;28;20037;-75
2023/09/18 17:40:53;;;;;;;1999.90;999.90;;;;;;;;;;5040107;28;20021;-74
2023/09/18 17:43:19;;;;;;;1999.90;999.90;;;;;;;;;;5039702;28;20037;-74
2023/09/18 17:45:45;;;;;;;1999.90;999.90;;;;;;;;;;5038923;28;20037;-78
2023/09/18 17:48:12;;;;;;;1999.90;999.90;;;;;;;;;;5040006;28;20143;-70
2023/09/18 17:50:38;;;;;;;1999.90;999.90;;;;;;;;;;5036815;28;20091;-73
2023/09/18 17:53:04;;;;;;;1999.90;999.90;;;;;;;;;;5045967;28;20480;-77
2023/09/18 17:55:30;;;;;;;1999.90;999.90;;;;;;;;;;5038543;28;20413;-75
2023/09/18 17:57:56;;;;;;;1999.90;999.90;;;;;;;;;;5035495;28;20116;-70
2023/09/18 18:00:22;;;;;;;1999.90;999.90;;;;;;;;;;5032387;28;20029;-79
2023/09/18 18:02:49;;;;;;;1999.90;999.90;;;;;;;;;;5046070;28;20444;-77
2023/09/18 18:05:15;;;;;;;1999.90;999.90;;;;;;;;;;5031360;28;20026;-74
2023/09/18 18:07:41;;;;;;;1999.90;999.90;;;;;;;;;;5038372;28;20042;-72
2023/09/18 18:10:08;;;;;;;1999.90;999.90;;;;;;;;;;5043889;28;20049;-77
2023/09/18 18:12:35;;;;;;;1999.90;999.90;;;;;;;;;;5050137;28;20037;-76
2023/09/18 18:15:01;;;;;;;1999.90;999.90;;;;;;;;;;5032911;28;20381;-76
2023/09/18 18:17:28;;;;;;;1999.90;999.90;;;;;;;;;;5040446;28;20017;-78
2023/09/18 18:19:54;;;;;;;1999.90;999.90;;;;;;;;;;5042738;28;20032;-81
2023/09/18 18:22:20;;;;;;;1999.90;999.90;;;;;;;;;;5046332;28;20033;-78
2023/09/18 18:24:46;;;;;;;1999.90;999.90;;;;;;;;;;5053838;28;20021;-77
2023/09/18 18:27:12;;;;;;;1999.90;999.90;;;;;;;;;;5051649;28;20033;-70
2023/09/18 18:29:39;;;;;;;1999.90;999.90;;;;;;;;;;5052765;28;20104;-79
2023/09/18 18:32:06;;;;;;;1999.90;999.90;;;;;;;;;;5053518;28;20100;-77
2023/09/18 18:34:32;;;;;;;1999.90;999.90;;;;;;;;;;5053199;28;20025;-75
2023/09/18 18:36:59;;;;;;;1999.90;999.90;;;;;;;;;;5053343;28;20033;-73
2023/09/18 18:39:25;;;;;;;1999.90;999.90;;;;;;;;;;5053135;28;20040;-78
2023/09/18 18:41:51;;;;;;;1999.90;999.90;;;;;;;;;;5052192;28;20400;-79
2023/09/18 18:44:17;;;;;;;1999.90;999.90;;;;;;;;;;5053307;28;20017;-75